Landes Station, West Virginia
Current Conditions -  °F | °C
As of 10:10 PM on Monday 26 Jan 2015 (Local Time) from KW99 Reporting Station
Haze Haze  
Wind Chill: -2°   Ceiling: 3500
Heat Index: -2°   Visibility: 5mi
Dew Point: -2°   Wind: 0mph
Humidity: 100%   Direction: NA
Pressure: 29.78"   Gusts: NA
Location:  38.9337°N, 79.1435°W
Report Text: KW99 270310Z AUTO 00000KT 5SM BR OVC035 M01/M01 A2978 RMK AO2 T10151015
Loading
Personal Weather Stations






























Interactive Weather Map New forecast layout! Learn more

10-Day Weather Forecast

Advertisements
Track Severe Weather on mobile